Time;durP1;ratioP1;P1;durP2;ratioP2;P2;SDS_P1;SDS_P2;PMS_P1;PMS_P2;Temp;Humidity;BMP_temperature;BMP_pressure;BME280_temperature;BME280_humidity;BME280_pressure;Samples;Min_cycle;Max_cycle;Signal;HPM_P1;HPM_P2
2021/05/27 00:00:19;;;;;;;2.77;1.27;;;;;;;;;;5015903;28;20812;-67
2021/05/27 00:02:45;;;;;;;1.60;1.10;;;;;;;;;;5052713;28;20473;-67
2021/05/27 00:05:12;;;;;;;2.83;1.50;;;;;;;;;;5052428;28;20406;-67
2021/05/27 00:07:38;;;;;;;1.83;1.20;;;;;;;;;;5036437;28;20504;-67
2021/05/27 00:10:05;;;;;;;2.13;1.20;;;;;;;;;;5035287;28;20774;-67
2021/05/27 00:12:31;;;;;;;1.83;1.10;;;;;;;;;;5016439;28;20905;-67
2021/05/27 00:14:57;;;;;;;1.80;1.20;;;;;;;;;;5024333;28;20430;-69
2021/05/27 00:17:23;;;;;;;3.13;1.23;;;;;;;;;;5016680;28;20483;-67
2021/05/27 00:19:49;;;;;;;1.50;0.97;;;;;;;;;;5016539;28;20892;-68
2021/05/27 00:22:15;;;;;;;2.00;1.20;;;;;;;;;;5049473;28;20829;-68
2021/05/27 00:24:41;;;;;;;1.93;1.43;;;;;;;;;;5031263;28;20911;-68
2021/05/27 00:27:07;;;;;;;2.13;1.27;;;;;;;;;;5051171;28;20763;-68
2021/05/27 00:29:34;;;;;;;1.90;1.30;;;;;;;;;;5056202;28;20402;-68
2021/05/27 00:32:00;;;;;;;2.13;1.30;;;;;;;;;;5053930;28;20437;-68
2021/05/27 00:34:26;;;;;;;2.00;1.27;;;;;;;;;;5055749;28;20409;-68
2021/05/27 00:36:52;;;;;;;2.03;1.30;;;;;;;;;;5053665;28;20448;-69
2021/05/27 00:39:18;;;;;;;2.00;1.37;;;;;;;;;;5055672;28;20406;-68
2021/05/27 00:41:44;;;;;;;4.90;1.50;;;;;;;;;;5029717;28;20431;-68
2021/05/27 00:44:24;;;;;;;2.30;1.10;;;;;;;;;;5016168;28;20825;-68
2021/05/27 00:46:50;;;;;;;1.57;1.10;;;;;;;;;;5040999;28;20464;-68
2021/05/27 00:49:16;;;;;;;1.90;1.20;;;;;;;;;;5056111;28;20417;-67
2021/05/27 00:51:44;;;;;;;1.90;1.10;;;;;;;;;;5031098;28;20458;-67
2021/05/27 00:54:10;;;;;;;2.17;1.00;;;;;;;;;;5016270;28;20438;-67
2021/05/27 00:56:36;;;;;;;2.00;1.43;;;;;;;;;;5026045;28;20451;-67
2021/05/27 00:59:03;;;;;;;2.23;1.20;;;;;;;;;;5034774;28;20442;-67
2021/05/27 01:01:29;;;;;;;3.27;1.07;;;;;;;;;;5034449;28;20435;-68
2021/05/27 01:03:55;;;;;;;1.80;1.10;;;;;;;;;;5034576;28;20454;-68
2021/05/27 01:06:21;;;;;;;1.77;1.27;;;;;;;;;;5033711;28;20927;-68
2021/05/27 01:08:47;;;;;;;1.77;1.03;;;;;;;;;;5035729;28;20487;-68
2021/05/27 01:11:15;;;;;;;1.60;1.10;;;;;;;;;;5034406;28;20434;-68
2021/05/27 01:13:42;;;;;;;5.80;1.53;;;;;;;;;;5035673;28;20414;-68
2021/05/27 01:16:15;;;;;;;3.00;1.30;;;;;;;;;;5032825;28;20466;-68
2021/05/27 01:18:41;;;;;;;2.60;1.60;;;;;;;;;;5035436;28;20447;-68
2021/05/27 01:21:07;;;;;;;2.07;1.40;;;;;;;;;;5034509;28;20563;-68
2021/05/27 01:23:33;;;;;;;2.67;1.40;;;;;;;;;;5031466;28;20454;-69
2021/05/27 01:26:00;;;;;;;2.20;1.33;;;;;;;;;;5030704;28;20497;-68
2021/05/27 01:28:30;;;;;;;1.70;1.00;;;;;;;;;;5035675;28;20477;-68
2021/05/27 01:30:57;;;;;;;1.90;0.90;;;;;;;;;;5039216;28;20643;-68
2021/05/27 01:33:24;;;;;;;1.67;1.10;;;;;;;;;;5055410;28;20394;-68
2021/05/27 01:35:50;;;;;;;2.50;1.30;;;;;;;;;;5053186;28;20563;-68
2021/05/27 01:38:17;;;;;;;1.83;1.03;;;;;;;;;;5054875;28;20449;-68
2021/05/27 01:40:43;;;;;;;1.93;1.00;;;;;;;;;;5053116;28;20446;-68
2021/05/27 01:43:10;;;;;;;2.13;1.00;;;;;;;;;;5055456;28;20406;-68
2021/05/27 01:45:37;;;;;;;1.50;1.00;;;;;;;;;;5053273;28;20429;-68
2021/05/27 01:48:03;;;;;;;2.63;1.10;;;;;;;;;;5055285;28;20457;-68
2021/05/27 01:50:29;;;;;;;1.93;1.20;;;;;;;;;;5050461;28;20476;-68
2021/05/27 01:52:56;;;;;;;1.70;1.10;;;;;;;;;;5034164;28;20450;-68
2021/05/27 01:55:22;;;;;;;1.97;1.17;;;;;;;;;;5034949;28;20402;-68
2021/05/27 01:57:48;;;;;;;1.70;1.20;;;;;;;;;;5033332;28;21026;-68
2021/05/27 02:00:15;;;;;;;1.80;1.13;;;;;;;;;;5035059;28;20869;-68
2021/05/27 02:02:41;;;;;;;2.63;1.10;;;;;;;;;;5036304;28;20442;-68
2021/05/27 02:05:07;;;;;;;2.77;1.13;;;;;;;;;;5033136;28;20458;-68
2021/05/27 02:07:33;;;;;;;2.40;1.30;;;;;;;;;;5050382;28;20449;-68
2021/05/27 02:09:59;;;;;;;1.60;1.13;;;;;;;;;;5054676;28;20398;-68
2021/05/27 02:12:25;;;;;;;2.53;1.53;;;;;;;;;;5052163;28;20437;-68
2021/05/27 02:14:51;;;;;;;1.63;1.10;;;;;;;;;;5033902;28;20458;-68
2021/05/27 02:17:17;;;;;;;1.80;1.10;;;;;;;;;;5047138;28;20523;-68
2021/05/27 02:19:43;;;;;;;2.93;1.40;;;;;;;;;;5054565;28;20443;-68
2021/05/27 02:22:09;;;;;;;1.93;1.43;;;;;;;;;;5027053;28;20427;-68
2021/05/27 02:24:35;;;;;;;2.50;1.47;;;;;;;;;;5033106;28;20423;-68
2021/05/27 02:27:01;;;;;;;3.60;1.40;;;;;;;;;;5020951;28;20455;-68
2021/05/27 02:29:27;;;;;;;1.83;1.20;;;;;;;;;;5014364;28;20404;-68
2021/05/27 02:31:54;;;;;;;2.10;1.10;;;;;;;;;;5014144;28;20435;-68
2021/05/27 02:34:20;;;;;;;1.73;1.00;;;;;;;;;;5014328;28;20784;-68
2021/05/27 02:36:46;;;;;;;1.73;1.20;;;;;;;;;;5013824;28;20451;-68
2021/05/27 02:39:12;;;;;;;2.30;1.17;;;;;;;;;;5012912;28;20446;-68
2021/05/27 02:41:38;;;;;;;4.07;3.53;;;;;;;;;;5028528;28;20524;-68
2021/05/27 02:44:04;;;;;;;1.90;1.30;;;;;;;;;;5053667;28;20397;-68
2021/05/27 02:46:30;;;;;;;1.93;1.50;;;;;;;;;;5051792;28;20457;-68
2021/05/27 02:48:56;;;;;;;2.00;1.40;;;;;;;;;;5053588;28;20489;-68
2021/05/27 02:51:22;;;;;;;1.83;1.17;;;;;;;;;;5051864;28;20433;-68
2021/05/27 02:53:48;;;;;;;2.00;1.47;;;;;;;;;;5053255;28;20402;-68
2021/05/27 02:56:14;;;;;;;2.20;1.90;;;;;;;;;;5043258;28;20471;-67
2021/05/27 02:58:40;;;;;;;2.27;1.40;;;;;;;;;;5032985;28;20477;-68
2021/05/27 03:01:06;;;;;;;1.70;1.30;;;;;;;;;;5029813;28;20427;-68
2021/05/27 03:03:33;;;;;;;2.30;1.47;;;;;;;;;;5013553;28;20972;-68
2021/05/27 03:06:00;;;;;;;2.17;1.63;;;;;;;;;;5015816;28;20881;-68
2021/05/27 03:08:27;;;;;;;2.17;1.37;;;;;;;;;;5053776;28;20434;-68
2021/05/27 03:10:54;;;;;;;2.43;1.37;;;;;;;;;;5047965;28;20469;-68
2021/05/27 03:13:20;;;;;;;1.67;1.20;;;;;;;;;;5053312;28;20414;-68
2021/05/27 03:15:46;;;;;;;2.27;1.17;;;;;;;;;;5053070;28;20432;-68
2021/05/27 03:18:12;;;;;;;1.90;1.43;;;;;;;;;;5051720;28;20472;-68
2021/05/27 03:20:38;;;;;;;3.80;1.77;;;;;;;;;;5052211;28;20414;-68
2021/05/27 03:23:05;;;;;;;2.17;1.50;;;;;;;;;;5051274;28;20421;-68
2021/05/27 03:25:31;;;;;;;1.70;1.33;;;;;;;;;;5052877;28;20402;-68
2021/05/27 03:27:57;;;;;;;2.50;1.77;;;;;;;;;;5017706;28;20455;-68
2021/05/27 03:30:24;;;;;;;1.90;1.47;;;;;;;;;;5020408;28;20434;-68
2021/05/27 03:32:51;;;;;;;2.27;1.53;;;;;;;;;;5047126;28;20417;-68
2021/05/27 03:35:17;;;;;;;4.43;1.63;;;;;;;;;;5052648;28;20547;-68
2021/05/27 03:37:43;;;;;;;1.80;1.30;;;;;;;;;;5022315;28;20812;-68
2021/05/27 03:40:12;;;;;;;2.17;1.30;;;;;;;;;;5012886;28;20412;-68
2021/05/27 03:42:42;;;;;;;3.67;1.97;;;;;;;;;;5040084;28;20428;-68
2021/05/27 03:45:12;;;;;;;2.33;1.43;;;;;;;;;;5052870;28;20410;-68
2021/05/27 03:47:38;;;;;;;2.60;1.57;;;;;;;;;;5050165;28;20515;-68
2021/05/27 03:50:09;;;;;;;2.23;1.70;;;;;;;;;;5052484;28;20406;-68
2021/05/27 03:52:36;;;;;;;3.20;1.80;;;;;;;;;;5025075;28;20438;-68
2021/05/27 03:55:02;;;;;;;2.07;1.40;;;;;;;;;;5013468;28;20465;-68
2021/05/27 03:57:28;;;;;;;9.70;1.53;;;;;;;;;;5025513;28;20460;-68
2021/05/27 04:02:44;;;;;;;1.70;1.40;;;;;;;;;;5027946;28;20527;-68
2021/05/27 04:07:55;;;;;;;2.20;1.27;;;;;;;;;;5012898;28;20498;-68
2021/05/27 04:10:22;;;;;;;2.13;1.70;;;;;;;;;;5012833;28;20494;-68
2021/05/27 04:12:48;;;;;;;2.90;1.50;;;;;;;;;;5040041;28;20515;-68
2021/05/27 04:15:26;;;;;;;2.00;1.20;;;;;;;;;;5052461;28;20410;-68
2021/05/27 04:18:03;;;;;;;1.90;1.40;;;;;;;;;;5035862;28;20489;-68
2021/05/27 04:20:31;;;;;;;3.03;1.50;;;;;;;;;;5032876;28;20834;-68
2021/05/27 04:22:57;;;;;;;3.63;1.37;;;;;;;;;;5031481;28;20458;-68
2021/05/27 04:25:25;;;;;;;4.43;1.80;;;;;;;;;;5032414;28;20474;-68
2021/05/27 04:27:51;;;;;;;3.00;1.70;;;;;;;;;;5044988;28;20796;-68
2021/05/27 04:30:19;;;;;;;1.80;1.20;;;;;;;;;;5052722;28;20437;-68
2021/05/27 04:35:26;;;;;;;2.03;1.50;;;;;;;;;;5012690;28;20391;-68
2021/05/27 04:37:52;;;;;;;4.90;1.30;;;;;;;;;;5030519;28;20814;-68
2021/05/27 04:40:18;;;;;;;1.80;1.30;;;;;;;;;;5032026;28;20403;-68
2021/05/27 04:42:44;;;;;;;1.97;1.27;;;;;;;;;;5045967;28;20480;-68
2021/05/27 04:45:11;;;;;;;3.20;1.57;;;;;;;;;;5051894;28;20428;-68
2021/05/27 04:47:37;;;;;;;2.20;1.57;;;;;;;;;;5049654;28;20522;-68
2021/05/27 04:50:04;;;;;;;2.50;1.43;;;;;;;;;;5052305;28;20429;-68
2021/05/27 04:52:30;;;;;;;2.60;1.73;;;;;;;;;;5053527;28;20429;-68
2021/05/27 04:54:56;;;;;;;2.03;1.40;;;;;;;;;;5055806;28;20777;-68
2021/05/27 04:57:22;;;;;;;2.00;1.27;;;;;;;;;;5030706;28;20972;-68
2021/05/27 04:59:48;;;;;;;2.07;1.40;;;;;;;;;;5014413;28;20473;-68
2021/05/27 05:02:14;;;;;;;2.47;1.63;;;;;;;;;;5035248;28;20432;-68
2021/05/27 05:04:40;;;;;;;4.93;2.07;;;;;;;;;;5055386;28;20437;-68
2021/05/27 05:07:06;;;;;;;2.10;1.57;;;;;;;;;;5036621;28;20517;-68
2021/05/27 05:09:32;;;;;;;3.23;1.20;;;;;;;;;;5017290;28;20427;-68
2021/05/27 05:11:58;;;;;;;2.87;1.50;;;;;;;;;;5053218;28;20472;-68
2021/05/27 05:14:25;;;;;;;2.00;1.50;;;;;;;;;;5055185;28;20410;-68
2021/05/27 05:16:51;;;;;;;1.97;1.53;;;;;;;;;;5046815;28;20457;-68
2021/05/27 05:19:17;;;;;;;3.27;2.77;;;;;;;;;;5033847;28;20450;-68
2021/05/27 05:21:43;;;;;;;2.40;1.57;;;;;;;;;;5029731;28;20797;-68
2021/05/27 05:24:09;;;;;;;2.47;1.83;;;;;;;;;;5015188;28;20486;-68
2021/05/27 05:26:36;;;;;;;2.83;1.70;;;;;;;;;;5015162;28;20541;-68
2021/05/27 05:29:03;;;;;;;2.93;2.00;;;;;;;;;;5014949;28;20955;-68
2021/05/27 05:31:30;;;;;;;2.60;1.60;;;;;;;;;;5020218;28;20451;-68
2021/05/27 05:33:56;;;;;;;2.60;1.70;;;;;;;;;;5054719;28;20401;-68
2021/05/27 05:36:22;;;;;;;2.80;1.53;;;;;;;;;;5049749;28;20431;-68
2021/05/27 05:38:49;;;;;;;2.07;1.67;;;;;;;;;;5034342;28;20458;-68
2021/05/27 05:41:15;;;;;;;2.20;1.40;;;;;;;;;;5033833;28;20930;-68
2021/05/27 05:43:41;;;;;;;2.60;1.67;;;;;;;;;;5043407;28;20514;-68
2021/05/27 05:46:07;;;;;;;3.17;2.17;;;;;;;;;;5034424;28;20403;-68
2021/05/27 05:48:34;;;;;;;3.33;1.60;;;;;;;;;;5051922;28;20445;-68
2021/05/27 05:51:01;;;;;;;4.97;1.90;;;;;;;;;;5054663;28;20894;-68
2021/05/27 05:53:27;;;;;;;3.57;1.70;;;;;;;;;;5033793;28;20449;-68
2021/05/27 05:55:54;;;;;;;6.03;1.43;;;;;;;;;;5034188;28;20407;-68
2021/05/27 05:58:21;;;;;;;2.53;1.50;;;;;;;;;;5032503;28;20938;-68
2021/05/27 06:00:48;;;;;;;2.13;1.30;;;;;;;;;;5033182;28;20954;-68
2021/05/27 06:03:14;;;;;;;2.67;1.57;;;;;;;;;;5034186;28;20418;-68
2021/05/27 06:05:40;;;;;;;2.60;1.70;;;;;;;;;;5034094;28;20453;-68
2021/05/27 06:08:06;;;;;;;2.20;1.57;;;;;;;;;;5042691;28;20893;-68
2021/05/27 06:10:33;;;;;;;2.03;1.30;;;;;;;;;;5054231;28;20823;-68
2021/05/27 06:12:59;;;;;;;1.90;1.43;;;;;;;;;;5051971;28;20433;-68
2021/05/27 06:15:25;;;;;;;2.73;1.53;;;;;;;;;;5053950;28;20484;-68
2021/05/27 06:17:52;;;;;;;1.90;1.53;;;;;;;;;;5051453;28;20544;-68
2021/05/27 06:20:22;;;;;;;2.27;1.40;;;;;;;;;;5054118;28;20954;-68
2021/05/27 06:22:48;;;;;;;2.10;1.60;;;;;;;;;;5039224;28;20438;-68
2021/05/27 06:25:15;;;;;;;3.93;1.50;;;;;;;;;;5014094;28;20400;-68
2021/05/27 06:27:41;;;;;;;2.70;1.60;;;;;;;;;;5025031;28;20872;-68
2021/05/27 06:30:08;;;;;;;1.70;1.13;;;;;;;;;;5053701;28;20894;-68
2021/05/27 06:32:37;;;;;;;4.43;1.30;;;;;;;;;;5051677;28;20434;-68
2021/05/27 06:35:07;;;;;;;3.03;2.03;;;;;;;;;;5053669;28;20410;-68
2021/05/27 06:37:38;;;;;;;1.90;1.17;;;;;;;;;;5047879;28;20818;-66
2021/05/27 06:40:05;;;;;;;2.00;1.33;;;;;;;;;;5033856;28;20383;-67
2021/05/27 06:42:31;;;;;;;1.80;1.27;;;;;;;;;;5035644;28;20436;-66
2021/05/27 06:44:57;;;;;;;1.60;1.10;;;;;;;;;;5053427;28;20402;-67
2021/05/27 06:47:23;;;;;;;2.00;1.20;;;;;;;;;;5051054;28;20463;-68
2021/05/27 06:49:49;;;;;;;1.73;1.17;;;;;;;;;;5053433;28;20771;-67
2021/05/27 06:52:15;;;;;;;2.13;1.50;;;;;;;;;;5051127;28;20859;-67
2021/05/27 06:54:41;;;;;;;2.87;1.40;;;;;;;;;;5053361;28;20922;-68
2021/05/27 06:57:07;;;;;;;1.67;0.90;;;;;;;;;;5051697;28;20808;-68
2021/05/27 06:59:34;;;;;;;2.00;1.40;;;;;;;;;;5052633;28;20921;-68
2021/05/27 07:02:00;;;;;;;2.00;1.47;;;;;;;;;;5050981;28;20422;-68
2021/05/27 07:04:26;;;;;;;2.23;1.07;;;;;;;;;;5033629;28;20411;-68
2021/05/27 07:06:52;;;;;;;2.00;1.10;;;;;;;;;;5033344;28;20415;-68
2021/05/27 07:09:20;;;;;;;2.43;1.50;;;;;;;;;;5031890;28;20515;-68
2021/05/27 07:11:46;;;;;;;1.73;1.13;;;;;;;;;;5032772;28;20486;-68
2021/05/27 07:14:12;;;;;;;1.73;1.00;;;;;;;;;;5028452;28;20446;-68
2021/05/27 07:16:38;;;;;;;2.70;1.10;;;;;;;;;;5027442;28;20426;-68
2021/05/27 07:19:04;;;;;;;2.10;1.30;;;;;;;;;;5031384;28;20874;-68
2021/05/27 07:21:30;;;;;;;1.80;0.80;;;;;;;;;;5028365;28;20458;-68
2021/05/27 07:23:56;;;;;;;1.53;1.10;;;;;;;;;;5020085;28;20456;-68
2021/05/27 07:26:22;;;;;;;1.80;1.10;;;;;;;;;;5029242;28;20514;-68
2021/05/27 07:28:48;;;;;;;1.70;1.20;;;;;;;;;;5029135;28;20430;-68
2021/05/27 07:31:14;;;;;;;1.80;1.20;;;;;;;;;;5031553;28;20406;-68
2021/05/27 07:33:41;;;;;;;1.57;0.93;;;;;;;;;;5031057;28;20422;-68
2021/05/27 07:36:07;;;;;;;1.87;1.13;;;;;;;;;;5030657;28;20414;-68
2021/05/27 07:38:34;;;;;;;2.20;1.20;;;;;;;;;;5030013;28;20995;-68
2021/05/27 07:41:00;;;;;;;1.93;1.07;;;;;;;;;;5013282;28;20404;-68
2021/05/27 07:43:26;;;;;;;2.03;1.13;;;;;;;;;;5016891;28;20435;-68
2021/05/27 07:45:52;;;;;;;1.87;1.10;;;;;;;;;;5032128;28;20415;-68
2021/05/27 07:48:18;;;;;;;1.90;1.20;;;;;;;;;;5029690;28;20818;-68
2021/05/27 07:50:44;;;;;;;2.70;1.20;;;;;;;;;;5031643;28;20832;-68
2021/05/27 07:53:15;;;;;;;1.70;1.00;;;;;;;;;;5031137;28;20427;-68
2021/05/27 07:55:41;;;;;;;3.47;1.47;;;;;;;;;;5031243;28;20433;-68
2021/05/27 07:58:08;;;;;;;4.20;1.70;;;;;;;;;;5028212;28;20470;-68
2021/05/27 08:00:34;;;;;;;2.47;1.33;;;;;;;;;;5031175;28;20770;-68
2021/05/27 08:03:00;;;;;;;2.37;1.20;;;;;;;;;;5033372;28;20505;-68
2021/05/27 08:05:27;;;;;;;3.07;1.50;;;;;;;;;;5033217;28;20419;-68
2021/05/27 08:07:53;;;;;;;2.53;1.73;;;;;;;;;;5029998;28;20459;-69
2021/05/27 08:10:19;;;;;;;2.57;1.33;;;;;;;;;;5033258;28;20430;-68
2021/05/27 08:12:45;;;;;;;2.00;1.17;;;;;;;;;;5030463;28;20461;-69
2021/05/27 08:15:12;;;;;;;3.47;2.07;;;;;;;;;;5032495;28;20411;-68
2021/05/27 08:17:38;;;;;;;1.50;0.90;;;;;;;;;;5030319;28;20461;-68
2021/05/27 08:20:05;;;;;;;2.23;1.03;;;;;;;;;;5030057;28;20484;-68
2021/05/27 08:22:31;;;;;;;1.97;1.40;;;;;;;;;;5029721;28;20484;-68
2021/05/27 08:24:58;;;;;;;1.53;1.13;;;;;;;;;;5025986;28;20427;-68
2021/05/27 08:27:24;;;;;;;3.47;1.90;;;;;;;;;;5033784;28;20450;-68
2021/05/27 08:29:50;;;;;;;2.63;1.33;;;;;;;;;;5034615;28;20414;-68
2021/05/27 08:32:16;;;;;;;2.10;1.23;;;;;;;;;;5036544;28;20799;-68
2021/05/27 08:34:43;;;;;;;2.13;1.20;;;;;;;;;;5040051;28;20426;-68
2021/05/27 08:37:09;;;;;;;2.17;1.30;;;;;;;;;;5034435;28;20431;-68
2021/05/27 08:39:35;;;;;;;1.73;1.20;;;;;;;;;;5044237;28;20438;-68
2021/05/27 08:42:01;;;;;;;1.67;1.00;;;;;;;;;;5034320;28;20429;-68
2021/05/27 08:44:28;;;;;;;2.23;1.17;;;;;;;;;;5034261;28;20419;-68
2021/05/27 08:46:54;;;;;;;2.70;1.40;;;;;;;;;;5035890;28;20855;-68
2021/05/27 08:49:20;;;;;;;2.33;1.27;;;;;;;;;;5033834;28;20438;-68
2021/05/27 08:51:46;;;;;;;2.97;1.40;;;;;;;;;;5035550;28;20422;-67
2021/05/27 08:54:12;;;;;;;2.50;1.43;;;;;;;;;;5033690;28;21021;-67
2021/05/27 08:56:38;;;;;;;2.00;1.47;;;;;;;;;;5033585;28;20504;-67
2021/05/27 08:59:04;;;;;;;3.03;1.60;;;;;;;;;;5034021;28;20501;-67
2021/05/27 09:01:31;;;;;;;2.33;1.50;;;;;;;;;;5034695;28;20415;-67
2021/05/27 09:03:57;;;;;;;5.10;2.10;;;;;;;;;;5030294;28;20881;-67
2021/05/27 09:06:23;;;;;;;5.50;1.53;;;;;;;;;;5038898;28;20434;-67
2021/05/27 09:09:02;;;;;;;4.70;1.50;;;;;;;;;;5032402;28;20438;-67
2021/05/27 09:11:35;;;;;;;3.77;1.40;;;;;;;;;;5032366;28;20793;-67
2021/05/27 09:14:01;;;;;;;3.60;1.83;;;;;;;;;;5030562;28;20462;-66
2021/05/27 09:16:28;;;;;;;20.40;1.40;;;;;;;;;;5033728;28;20434;-67
2021/05/27 09:18:54;;;;;;;4.10;1.20;;;;;;;;;;5039743;28;20622;-67
2021/05/27 09:21:36;;;;;;;2.00;1.37;;;;;;;;;;5033987;28;20418;-67
2021/05/27 09:24:03;;;;;;;2.90;1.37;;;;;;;;;;5040912;28;20783;-67
2021/05/27 09:26:29;;;;;;;2.40;1.40;;;;;;;;;;5042945;28;20938;-68
2021/05/27 09:29:09;;;;;;;2.70;1.07;;;;;;;;;;5030972;28;20798;-67
2021/05/27 09:31:35;;;;;;;2.23;1.20;;;;;;;;;;5033877;28;20438;-67
2021/05/27 09:34:03;;;;;;;1.67;1.20;;;;;;;;;;5040562;28;20793;-67
2021/05/27 09:36:29;;;;;;;4.33;1.33;;;;;;;;;;5032831;28;20454;-67
2021/05/27 09:39:00;;;;;;;1.50;0.90;;;;;;;;;;5033473;28;20549;-67
2021/05/27 09:41:34;;;;;;;2.80;1.30;;;;;;;;;;5034561;28;20770;-67
2021/05/27 09:44:03;;;;;;;2.57;1.40;;;;;;;;;;5030426;28;20450;-67
2021/05/27 09:46:47;;;;;;;9.07;1.87;;;;;;;;;;5033398;28;20501;-68
2021/05/27 09:49:13;;;;;;;3.40;1.60;;;;;;;;;;5029957;28;20774;-67
2021/05/27 09:51:39;;;;;;;3.80;1.40;;;;;;;;;;5054210;28;20402;-67
2021/05/27 09:54:05;;;;;;;2.90;1.20;;;;;;;;;;5052090;28;20421;-67
2021/05/27 09:56:41;;;;;;;2.97;1.40;;;;;;;;;;5054553;28;20441;-68
2021/05/27 09:59:08;;;;;;;2.80;1.23;;;;;;;;;;5046045;28;20885;-67
2021/05/27 10:01:34;;;;;;;2.43;1.33;;;;;;;;;;5034486;28;20502;-67
2021/05/27 10:04:10;;;;;;;4.00;1.73;;;;;;;;;;5037960;28;20433;-67
2021/05/27 10:06:36;;;;;;;2.53;1.20;;;;;;;;;;5053994;28;20442;-67
2021/05/27 10:09:04;;;;;;;2.40;1.33;;;;;;;;;;5051909;28;20426;-67
2021/05/27 10:11:30;;;;;;;2.10;1.33;;;;;;;;;;5054199;28;20743;-67
2021/05/27 10:13:57;;;;;;;2.50;1.53;;;;;;;;;;5033368;28;20926;-67
2021/05/27 10:16:23;;;;;;;3.90;1.63;;;;;;;;;;5053812;28;20413;-67
2021/05/27 10:18:51;;;;;;;2.10;1.50;;;;;;;;;;5051568;28;20449;-67
2021/05/27 10:21:17;;;;;;;2.77;1.70;;;;;;;;;;5051757;28;20434;-67
2021/05/27 10:23:43;;;;;;;2.00;1.43;;;;;;;;;;5051151;28;20423;-68
2021/05/27 10:26:10;;;;;;;2.67;1.30;;;;;;;;;;5033963;28;20411;-67
2021/05/27 10:28:36;;;;;;;2.60;1.37;;;;;;;;;;5033929;28;20744;-67
2021/05/27 10:31:02;;;;;;;3.13;1.60;;;;;;;;;;5052556;28;20508;-67
2021/05/27 10:33:36;;;;;;;2.23;1.40;;;;;;;;;;5051588;28;20463;-67
2021/05/27 10:36:03;;;;;;;2.77;1.40;;;;;;;;;;5033623;28;20466;-67
2021/05/27 10:41:05;;;;;;;1.80;1.20;;;;;;;;;;5054577;28;20489;-67
2021/05/27 10:43:32;;;;;;;3.80;1.90;;;;;;;;;;5051745;28;20757;-68
2021/05/27 10:46:04;;;;;;;2.07;1.40;;;;;;;;;;5052881;28;20414;-67
2021/05/27 10:48:32;;;;;;;2.33;1.20;;;;;;;;;;5051106;28;20422;-68
2021/05/27 10:53:40;;;;;;;1.83;1.20;;;;;;;;;;5053171;28;20402;-67
2021/05/27 10:56:06;;;;;;;2.50;1.67;;;;;;;;;;5030143;28;20418;-67
2021/05/27 10:59:05;;;;;;;3.07;1.30;;;;;;;;;;5032099;28;20981;-66
2021/05/27 11:01:31;;;;;;;3.10;1.83;;;;;;;;;;4997703;28;20613;-66
2021/05/27 11:03:58;;;;;;;2.67;1.03;;;;;;;;;;5033101;28;20407;-67
2021/05/27 11:06:31;;;;;;;2.17;1.33;;;;;;;;;;5031651;28;20414;-67
2021/05/27 11:09:10;;;;;;;3.43;1.10;;;;;;;;;;5032514;28;20505;-67
2021/05/27 11:11:40;;;;;;;2.03;1.43;;;;;;;;;;5030559;28;20407;-67
2021/05/27 11:14:15;;;;;;;1.60;1.00;;;;;;;;;;5032404;28;20425;-67
2021/05/27 11:17:00;;;;;;;1.80;1.07;;;;;;;;;;5029286;28;20434;-67
2021/05/27 11:20:21;;;;;;;2.33;1.43;;;;;;;;;;5025119;28;20507;-67
2021/05/27 11:25:16;;;;;;;1.97;1.20;;;;;;;;;;5050968;28;20998;-67
2021/05/27 11:28:11;;;;;;;4.90;1.27;;;;;;;;;;5050788;28;20477;-67
2021/05/27 11:30:40;;;;;;;2.23;1.40;;;;;;;;;;5026619;28;20439;-67
2021/05/27 11:33:06;;;;;;;4.97;1.33;;;;;;;;;;5032768;28;20407;-67
2021/05/27 11:35:41;;;;;;;4.03;1.37;;;;;;;;;;5046389;28;20491;-68
2021/05/27 11:38:09;;;;;;;2.47;1.10;;;;;;;;;;5032753;28;21054;-66
2021/05/27 11:40:36;;;;;;;4.77;3.83;;;;;;;;;;5027630;28;20434;-66
2021/05/27 11:43:03;;;;;;;3.50;1.70;;;;;;;;;;5032574;28;20926;-66
2021/05/27 11:45:38;;;;;;;2.07;1.20;;;;;;;;;;5019766;28;20431;-69
2021/05/27 11:50:50;;;;;;;4.10;1.30;;;;;;;;;;5030113;28;20430;-68
2021/05/27 11:53:19;;;;;;;4.57;1.63;;;;;;;;;;5032454;28;20407;-68
2021/05/27 11:55:55;;;;;;;2.57;1.50;;;;;;;;;;5016520;28;20427;-66
2021/05/27 11:58:42;;;;;;;2.57;1.33;;;;;;;;;;5015063;28;20451;-66
2021/05/27 12:01:24;;;;;;;3.90;1.13;;;;;;;;;;5039567;28;20444;-67
2021/05/27 12:03:59;;;;;;;2.00;1.10;;;;;;;;;;5039077;28;20841;-67
2021/05/27 12:06:25;;;;;;;8.73;1.27;;;;;;;;;;5035358;28;20496;-67
2021/05/27 12:08:51;;;;;;;1.73;1.20;;;;;;;;;;5036745;28;20434;-67
2021/05/27 12:11:28;;;;;;;1.90;1.23;;;;;;;;;;5054778;28;20433;-67
2021/05/27 12:14:01;;;;;;;1.60;1.10;;;;;;;;;;5047230;28;20472;-68
2021/05/27 12:16:31;;;;;;;2.93;1.80;;;;;;;;;;5016290;28;20446;-67
2021/05/27 12:19:04;;;;;;;7.10;1.27;;;;;;;;;;5016587;28;20505;-68
2021/05/27 12:21:31;;;;;;;8.63;1.27;;;;;;;;;;5016331;28;20410;-68
2021/05/27 12:23:57;;;;;;;2.23;1.10;;;;;;;;;;5016311;28;20479;-70
2021/05/27 12:26:23;;;;;;;2.77;1.23;;;;;;;;;;5029417;28;20415;-66
2021/05/27 12:28:50;;;;;;;2.57;1.10;;;;;;;;;;5036217;28;20502;-68
2021/05/27 12:31:16;;;;;;;1.60;1.10;;;;;;;;;;5053306;28;20458;-66
2021/05/27 12:33:42;;;;;;;4.73;1.40;;;;;;;;;;5056029;28;20474;-67
2021/05/27 12:36:10;;;;;;;4.47;1.33;;;;;;;;;;5039096;28;20444;-68
2021/05/27 12:38:41;;;;;;;4.43;1.00;;;;;;;;;;5035786;28;20476;-68
2021/05/27 12:41:08;;;;;;;2.63;1.47;;;;;;;;;;5051672;28;20447;-68
2021/05/27 12:43:42;;;;;;;2.57;1.20;;;;;;;;;;5040357;28;20489;-68
2021/05/27 12:46:10;;;;;;;1.80;1.00;;;;;;;;;;5036041;28;20794;-68
2021/05/27 12:48:57;;;;;;;2.40;1.13;;;;;;;;;;5032197;28;20561;-68
2021/05/27 12:51:28;;;;;;;2.03;1.13;;;;;;;;;;5035105;28;20938;-68
2021/05/27 12:53:55;;;;;;;2.73;1.30;;;;;;;;;;5055850;28;20874;-68
2021/05/27 12:56:25;;;;;;;1.60;1.00;;;;;;;;;;5053524;28;20759;-66
2021/05/27 12:58:53;;;;;;;1.67;1.20;;;;;;;;;;5050315;28;20457;-66
2021/05/27 13:01:34;;;;;;;1.73;0.80;;;;;;;;;;5049558;28;20436;-67
2021/05/27 13:04:00;;;;;;;4.70;1.20;;;;;;;;;;5046133;28;20405;-67
2021/05/27 13:06:34;;;;;;;2.73;1.50;;;;;;;;;;5016540;28;20505;-66
2021/05/27 13:09:01;;;;;;;3.23;1.30;;;;;;;;;;5027578;28;20514;-68
2021/05/27 13:11:32;;;;;;;2.57;1.23;;;;;;;;;;5033200;28;20579;-66
2021/05/27 13:13:58;;;;;;;2.07;0.90;;;;;;;;;;5035225;28;20437;-67
2021/05/27 13:16:38;;;;;;;2.13;1.50;;;;;;;;;;5051465;28;20425;-67
2021/05/27 13:19:06;;;;;;;2.57;1.10;;;;;;;;;;5053942;28;20479;-67
2021/05/27 13:21:46;;;;;;;3.27;1.70;;;;;;;;;;5051099;28;20488;-67
2021/05/27 13:24:15;;;;;;;1.63;1.00;;;;;;;;;;5029390;28;20419;-67
2021/05/27 13:26:41;;;;;;;5.30;1.30;;;;;;;;;;5032984;28;20451;-67
2021/05/27 13:29:07;;;;;;;3.10;1.40;;;;;;;;;;5034208;28;20806;-67
2021/05/27 13:31:35;;;;;;;3.03;1.30;;;;;;;;;;5032518;28;20431;-67
2021/05/27 13:34:01;;;;;;;2.00;1.10;;;;;;;;;;5015130;28;20408;-67
2021/05/27 13:36:28;;;;;;;2.53;1.00;;;;;;;;;;5048561;28;20503;-67
2021/05/27 13:38:54;;;;;;;2.13;1.30;;;;;;;;;;5054006;28;20877;-67
2021/05/27 13:41:20;;;;;;;2.27;1.20;;;;;;;;;;5050799;28;20422;-68
2021/05/27 13:43:46;;;;;;;1.53;1.00;;;;;;;;;;5055319;28;20398;-67
2021/05/27 13:46:12;;;;;;;2.03;1.00;;;;;;;;;;5052861;28;20421;-67
2021/05/27 13:48:40;;;;;;;1.80;1.00;;;;;;;;;;5048542;23;20495;-83
2021/05/27 13:51:08;;;;;;;4.00;1.40;;;;;;;;;;5038232;28;20430;-83
2021/05/27 13:53:36;;;;;;;1.73;1.10;;;;;;;;;;5041732;28;20486;-82
2021/05/27 13:56:05;;;;;;;2.53;1.20;;;;;;;;;;5028287;28;20431;-81
2021/05/27 13:58:31;;;;;;;3.40;1.30;;;;;;;;;;5038880;28;20459;-82
2021/05/27 14:01:07;;;;;;;3.00;1.27;;;;;;;;;;5033656;28;20559;-83
2021/05/27 14:03:37;;;;;;;2.43;1.30;;;;;;;;;;5041812;28;20752;-81
2021/05/27 14:06:07;;;;;;;3.23;1.10;;;;;;;;;;5045300;28;21004;-83
2021/05/27 14:08:34;;;;;;;2.53;1.20;;;;;;;;;;5042758;28;20457;-83
2021/05/27 14:11:09;;;;;;;2.47;1.20;;;;;;;;;;5046865;28;20435;-83
2021/05/27 14:13:35;;;;;;;3.73;1.30;;;;;;;;;;5058717;23;20571;-66
2021/05/27 14:16:01;;;;;;;8.63;3.40;;;;;;;;;;5051120;28;20933;-68
2021/05/27 14:18:27;;;;;;;2.07;1.17;;;;;;;;;;5054221;28;20441;-68
2021/05/27 14:20:55;;;;;;;2.33;1.13;;;;;;;;;;5053053;28;20972;-68
2021/05/27 14:23:21;;;;;;;2.57;1.20;;;;;;;;;;5041546;28;20934;-68
2021/05/27 14:25:47;;;;;;;2.00;1.30;;;;;;;;;;5043730;28;20426;-68
2021/05/27 14:28:14;;;;;;;2.03;0.97;;;;;;;;;;5054455;28;20479;-68
2021/05/27 14:30:41;;;;;;;1.70;1.13;;;;;;;;;;5053070;28;20968;-68
2021/05/27 14:33:07;;;;;;;1.87;1.10;;;;;;;;;;5054066;28;20437;-68
2021/05/27 14:35:33;;;;;;;3.00;1.10;;;;;;;;;;5053889;28;20433;-68
2021/05/27 14:38:00;;;;;;;1.60;0.90;;;;;;;;;;5054898;28;20481;-68
2021/05/27 14:40:26;;;;;;;2.20;1.10;;;;;;;;;;5054747;28;20433;-68
2021/05/27 14:42:52;;;;;;;1.67;1.00;;;;;;;;;;5054117;28;20445;-68
2021/05/27 14:45:18;;;;;;;2.30;1.10;;;;;;;;;;5054121;28;20792;-68
2021/05/27 14:47:44;;;;;;;2.00;0.93;;;;;;;;;;5054179;28;20409;-68
2021/05/27 14:50:12;;;;;;;2.00;1.30;;;;;;;;;;5051622;28;20788;-68
2021/05/27 14:52:38;;;;;;;2.30;1.07;;;;;;;;;;5054884;28;20437;-68
2021/05/27 14:55:05;;;;;;;1.87;1.10;;;;;;;;;;5052860;28;20462;-68
2021/05/27 14:57:31;;;;;;;2.93;1.00;;;;;;;;;;5053911;28;20848;-68
2021/05/27 14:59:57;;;;;;;8.87;1.10;;;;;;;;;;5052813;28;20442;-67
2021/05/27 15:02:23;;;;;;;1.83;0.90;;;;;;;;;;5047036;28;20521;-68
2021/05/27 15:04:50;;;;;;;5.20;1.33;;;;;;;;;;5042730;28;20418;-68